sensor_id;sensor_type;location;lat;lon;timestamp;P1;durP1;ratioP1;P2;durP2;ratioP2
46561;SDS011;32289;42.688;23.330;2022-07-18T00:02:25;2.72;;;1.67;;
46561;SDS011;32289;42.688;23.330;2022-07-18T00:06:06;4.10;;;1.67;;
46561;SDS011;32289;42.688;23.330;2022-07-18T00:09:46;3.92;;;1.70;;
46561;SDS011;32289;42.688;23.330;2022-07-18T00:13:27;4.34;;;1.58;;
46561;SDS011;32289;42.688;23.330;2022-07-18T00:17:08;3.40;;;1.65;;
46561;SDS011;32289;42.688;23.330;2022-07-18T00:20:49;2.83;;;1.40;;
46561;SDS011;32289;42.688;23.330;2022-07-18T00:24:29;3.05;;;1.63;;
46561;SDS011;32289;42.688;23.330;2022-07-18T00:28:11;5.63;;;1.80;;
46561;SDS011;32289;42.688;23.330;2022-07-18T00:31:52;4.00;;;1.40;;
46561;SDS011;32289;42.688;23.330;2022-07-18T00:35:33;3.97;;;1.52;;
46561;SDS011;32289;42.688;23.330;2022-07-18T00:39:14;2.72;;;1.48;;
46561;SDS011;32289;42.688;23.330;2022-07-18T00:42:55;3.22;;;1.40;;
46561;SDS011;32289;42.688;23.330;2022-07-18T00:46:36;3.03;;;1.48;;
46561;SDS011;32289;42.688;23.330;2022-07-18T00:50:17;3.13;;;1.45;;
46561;SDS011;32289;42.688;23.330;2022-07-18T00:53:59;5.05;;;1.52;;
46561;SDS011;32289;42.688;23.330;2022-07-18T00:57:41;4.00;;;1.67;;
46561;SDS011;32289;42.688;23.330;2022-07-18T01:01:22;3.75;;;1.80;;
46561;SDS011;32289;42.688;23.330;2022-07-18T01:05:21;1.88;;;1.13;;
46561;SDS011;32289;42.688;23.330;2022-07-18T01:09:02;2.38;;;1.27;;
46561;SDS011;32289;42.688;23.330;2022-07-18T01:12:43;2.22;;;1.38;;
46561;SDS011;32289;42.688;23.330;2022-07-18T01:16:25;2.67;;;1.45;;
46561;SDS011;32289;42.688;23.330;2022-07-18T01:20:06;2.95;;;1.15;;
46561;SDS011;32289;42.688;23.330;2022-07-18T01:23:47;2.75;;;1.20;;
46561;SDS011;32289;42.688;23.330;2022-07-18T01:27:28;4.60;;;1.52;;
46561;SDS011;32289;42.688;23.330;2022-07-18T01:31:09;3.53;;;1.33;;
46561;SDS011;32289;42.688;23.330;2022-07-18T01:34:50;4.35;;;1.35;;
46561;SDS011;32289;42.688;23.330;2022-07-18T01:38:31;2.55;;;1.33;;
46561;SDS011;32289;42.688;23.330;2022-07-18T01:42:14;2.88;;;1.33;;
46561;SDS011;32289;42.688;23.330;2022-07-18T01:45:55;3.72;;;1.40;;
46561;SDS011;32289;42.688;23.330;2022-07-18T01:49:36;2.08;;;1.30;;
46561;SDS011;32289;42.688;23.330;2022-07-18T01:53:17;1.70;;;0.85;;
46561;SDS011;32289;42.688;23.330;2022-07-18T01:57:02;3.08;;;1.15;;
46561;SDS011;32289;42.688;23.330;2022-07-18T02:00:43;4.47;;;1.67;;
46561;SDS011;32289;42.688;23.330;2022-07-18T02:04:24;3.75;;;1.80;;
46561;SDS011;32289;42.688;23.330;2022-07-18T02:08:25;2.75;;;1.30;;
46561;SDS011;32289;42.688;23.330;2022-07-18T02:12:05;2.80;;;1.20;;
46561;SDS011;32289;42.688;23.330;2022-07-18T02:15:46;2.45;;;1.20;;
46561;SDS011;32289;42.688;23.330;2022-07-18T02:19:27;2.53;;;1.20;;
46561;SDS011;32289;42.688;23.330;2022-07-18T02:23:08;2.83;;;1.52;;
46561;SDS011;32289;42.688;23.330;2022-07-18T02:26:48;2.13;;;1.20;;
46561;SDS011;32289;42.688;23.330;2022-07-18T02:30:30;4.18;;;1.20;;
46561;SDS011;32289;42.688;23.330;2022-07-18T02:34:11;2.58;;;1.40;;
46561;SDS011;32289;42.688;23.330;2022-07-18T02:37:51;3.17;;;1.50;;
46561;SDS011;32289;42.688;23.330;2022-07-18T02:41:32;2.80;;;1.33;;
46561;SDS011;32289;42.688;23.330;2022-07-18T02:45:13;2.92;;;1.40;;
46561;SDS011;32289;42.688;23.330;2022-07-18T02:48:54;2.47;;;1.40;;
46561;SDS011;32289;42.688;23.330;2022-07-18T02:52:35;3.92;;;1.20;;
46561;SDS011;32289;42.688;23.330;2022-07-18T02:56:15;2.22;;;1.27;;
46561;SDS011;32289;42.688;23.330;2022-07-18T02:59:56;5.18;;;1.45;;
46561;SDS011;32289;42.688;23.330;2022-07-18T03:03:37;2.13;;;1.17;;
46561;SDS011;32289;42.688;23.330;2022-07-18T03:07:18;4.45;;;1.80;;
46561;SDS011;32289;42.688;23.330;2022-07-18T03:10:58;3.75;;;1.33;;
46561;SDS011;32289;42.688;23.330;2022-07-18T03:14:39;2.92;;;1.30;;
46561;SDS011;32289;42.688;23.330;2022-07-18T03:18:20;4.05;;;1.20;;
46561;SDS011;32289;42.688;23.330;2022-07-18T03:22:02;3.75;;;1.27;;
46561;SDS011;32289;42.688;23.330;2022-07-18T03:25:43;2.55;;;0.98;;
46561;SDS011;32289;42.688;23.330;2022-07-18T03:29:24;3.13;;;1.52;;
46561;SDS011;32289;42.688;23.330;2022-07-18T03:33:06;3.28;;;1.20;;
46561;SDS011;32289;42.688;23.330;2022-07-18T03:36:46;5.22;;;1.60;;
46561;SDS011;32289;42.688;23.330;2022-07-18T03:40:27;3.08;;;1.40;;
46561;SDS011;32289;42.688;23.330;2022-07-18T03:44:08;4.15;;;1.20;;
46561;SDS011;32289;42.688;23.330;2022-07-18T03:47:48;6.60;;;1.30;;
46561;SDS011;32289;42.688;23.330;2022-07-18T03:51:29;4.22;;;1.08;;
46561;SDS011;32289;42.688;23.330;2022-07-18T03:55:10;4.38;;;1.40;;
46561;SDS011;32289;42.688;23.330;2022-07-18T03:58:50;2.25;;;1.27;;
46561;SDS011;32289;42.688;23.330;2022-07-18T04:02:31;4.30;;;1.30;;
46561;SDS011;32289;42.688;23.330;2022-07-18T04:06:12;4.38;;;1.65;;
46561;SDS011;32289;42.688;23.330;2022-07-18T04:09:52;4.22;;;1.30;;
46561;SDS011;32289;42.688;23.330;2022-07-18T04:13:33;4.78;;;1.30;;
46561;SDS011;32289;42.688;23.330;2022-07-18T04:17:14;2.03;;;1.25;;
46561;SDS011;32289;42.688;23.330;2022-07-18T04:20:54;2.75;;;1.23;;
46561;SDS011;32289;42.688;23.330;2022-07-18T04:24:35;2.45;;;1.08;;
46561;SDS011;32289;42.688;23.330;2022-07-18T04:28:16;1.90;;;1.33;;
46561;SDS011;32289;42.688;23.330;2022-07-18T04:31:59;3.08;;;1.60;;
46561;SDS011;32289;42.688;23.330;2022-07-18T04:35:40;6.93;;;1.48;;
46561;SDS011;32289;42.688;23.330;2022-07-18T04:39:21;2.47;;;1.58;;
46561;SDS011;32289;42.688;23.330;2022-07-18T04:43:02;2.38;;;1.20;;
46561;SDS011;32289;42.688;23.330;2022-07-18T04:46:43;7.80;;;1.58;;
46561;SDS011;32289;42.688;23.330;2022-07-18T04:50:24;9.85;;;1.38;;
46561;SDS011;32289;42.688;23.330;2022-07-18T04:54:05;4.20;;;1.50;;
46561;SDS011;32289;42.688;23.330;2022-07-18T04:57:48;3.60;;;1.33;;
46561;SDS011;32289;42.688;23.330;2022-07-18T05:01:30;4.60;;;1.30;;
46561;SDS011;32289;42.688;23.330;2022-07-18T05:05:11;7.72;;;1.50;;
46561;SDS011;32289;42.688;23.330;2022-07-18T05:08:53;2.92;;;1.30;;
46561;SDS011;32289;42.688;23.330;2022-07-18T05:12:34;1.98;;;1.13;;
46561;SDS011;32289;42.688;23.330;2022-07-18T05:16:16;3.58;;;1.65;;
46561;SDS011;32289;42.688;23.330;2022-07-18T05:19:56;7.95;;;1.20;;
46561;SDS011;32289;42.688;23.330;2022-07-18T05:23:37;4.30;;;1.20;;
46561;SDS011;32289;42.688;23.330;2022-07-18T05:27:18;9.45;;;1.63;;
46561;SDS011;32289;42.688;23.330;2022-07-18T05:30:58;4.85;;;1.60;;
46561;SDS011;32289;42.688;23.330;2022-07-18T05:34:40;2.30;;;1.20;;
46561;SDS011;32289;42.688;23.330;2022-07-18T05:38:20;3.78;;;1.50;;
46561;SDS011;32289;42.688;23.330;2022-07-18T05:42:02;4.82;;;1.58;;
46561;SDS011;32289;42.688;23.330;2022-07-18T05:45:43;4.18;;;2.03;;
46561;SDS011;32289;42.688;23.330;2022-07-18T05:49:24;5.03;;;1.90;;
46561;SDS011;32289;42.688;23.330;2022-07-18T05:53:04;4.47;;;1.63;;
46561;SDS011;32289;42.688;23.330;2022-07-18T05:56:49;5.15;;;2.35;;
46561;SDS011;32289;42.688;23.330;2022-07-18T06:00:33;2.75;;;1.70;;
46561;SDS011;32289;42.688;23.330;2022-07-18T06:04:14;4.53;;;1.27;;
46561;SDS011;32289;42.688;23.330;2022-07-18T06:07:56;3.25;;;1.40;;
46561;SDS011;32289;42.688;23.330;2022-07-18T06:11:38;7.00;;;1.75;;
46561;SDS011;32289;42.688;23.330;2022-07-18T06:15:19;2.45;;;1.00;;
46561;SDS011;32289;42.688;23.330;2022-07-18T06:18:59;18.02;;;3.30;;
46561;SDS011;32289;42.688;23.330;2022-07-18T06:22:40;3.42;;;1.58;;
46561;SDS011;32289;42.688;23.330;2022-07-18T06:26:21;7.50;;;1.10;;
46561;SDS011;32289;42.688;23.330;2022-07-18T06:30:02;4.47;;;1.33;;
46561;SDS011;32289;42.688;23.330;2022-07-18T06:33:44;4.20;;;1.40;;
46561;SDS011;32289;42.688;23.330;2022-07-18T06:37:25;3.78;;;1.20;;
46561;SDS011;32289;42.688;23.330;2022-07-18T06:41:05;3.17;;;1.48;;
46561;SDS011;32289;42.688;23.330;2022-07-18T06:44:47;3.03;;;1.50;;
46561;SDS011;32289;42.688;23.330;2022-07-18T06:48:29;5.75;;;1.80;;
46561;SDS011;32289;42.688;23.330;2022-07-18T06:52:13;3.08;;;1.30;;
46561;SDS011;32289;42.688;23.330;2022-07-18T06:55:56;7.15;;;1.90;;
46561;SDS011;32289;42.688;23.330;2022-07-18T06:59:37;3.83;;;2.10;;
46561;SDS011;32289;42.688;23.330;2022-07-18T07:03:17;3.15;;;1.83;;
46561;SDS011;32289;42.688;23.330;2022-07-18T07:06:58;4.70;;;1.70;;
46561;SDS011;32289;42.688;23.330;2022-07-18T07:10:39;4.32;;;3.10;;
46561;SDS011;32289;42.688;23.330;2022-07-18T07:14:21;3.60;;;1.98;;
46561;SDS011;32289;42.688;23.330;2022-07-18T07:18:01;5.00;;;1.63;;
46561;SDS011;32289;42.688;23.330;2022-07-18T07:21:42;3.17;;;1.77;;
46561;SDS011;32289;42.688;23.330;2022-07-18T07:25:24;3.33;;;1.10;;
46561;SDS011;32289;42.688;23.330;2022-07-18T07:29:06;3.78;;;1.50;;
46561;SDS011;32289;42.688;23.330;2022-07-18T07:32:47;5.00;;;1.50;;
46561;SDS011;32289;42.688;23.330;2022-07-18T07:36:28;4.07;;;1.60;;
46561;SDS011;32289;42.688;23.330;2022-07-18T07:40:09;5.35;;;2.78;;
46561;SDS011;32289;42.688;23.330;2022-07-18T07:43:50;3.72;;;2.20;;
46561;SDS011;32289;42.688;23.330;2022-07-18T07:47:31;4.03;;;1.80;;
46561;SDS011;32289;42.688;23.330;2022-07-18T07:51:12;3.20;;;1.55;;
46561;SDS011;32289;42.688;23.330;2022-07-18T07:54:53;2.20;;;1.33;;
46561;SDS011;32289;42.688;23.330;2022-07-18T07:58:36;4.38;;;1.83;;
46561;SDS011;32289;42.688;23.330;2022-07-18T08:02:17;3.78;;;1.88;;
46561;SDS011;32289;42.688;23.330;2022-07-18T08:05:58;8.18;;;2.53;;
46561;SDS011;32289;42.688;23.330;2022-07-18T08:09:39;2.38;;;1.00;;
46561;SDS011;32289;42.688;23.330;2022-07-18T08:13:20;1.95;;;1.00;;
46561;SDS011;32289;42.688;23.330;2022-07-18T08:17:01;4.30;;;1.33;;
46561;SDS011;32289;42.688;23.330;2022-07-18T08:20:41;1.83;;;1.10;;
46561;SDS011;32289;42.688;23.330;2022-07-18T08:24:22;2.17;;;1.15;;
46561;SDS011;32289;42.688;23.330;2022-07-18T08:28:03;2.60;;;1.42;;
46561;SDS011;32289;42.688;23.330;2022-07-18T08:31:45;2.13;;;1.15;;
46561;SDS011;32289;42.688;23.330;2022-07-18T08:35:26;4.15;;;1.45;;
46561;SDS011;32289;42.688;23.330;2022-07-18T08:39:08;4.22;;;1.58;;
46561;SDS011;32289;42.688;23.330;2022-07-18T08:42:49;2.90;;;1.27;;
46561;SDS011;32289;42.688;23.330;2022-07-18T08:46:32;4.28;;;1.10;;
46561;SDS011;32289;42.688;23.330;2022-07-18T08:50:14;3.47;;;1.60;;
46561;SDS011;32289;42.688;23.330;2022-07-18T08:53:55;3.22;;;1.17;;
46561;SDS011;32289;42.688;23.330;2022-07-18T08:57:36;4.05;;;1.40;;
46561;SDS011;32289;42.688;23.330;2022-07-18T09:01:17;3.47;;;1.02;;
46561;SDS011;32289;42.688;23.330;2022-07-18T09:05:03;2.30;;;1.00;;
46561;SDS011;32289;42.688;23.330;2022-07-18T09:08:58;6.93;;;1.30;;
46561;SDS011;32289;42.688;23.330;2022-07-18T09:12:41;4.82;;;1.40;;
46561;SDS011;32289;42.688;23.330;2022-07-18T09:16:36;7.93;;;1.17;;
46561;SDS011;32289;42.688;23.330;2022-07-18T09:20:16;4.05;;;1.00;;
46561;SDS011;32289;42.688;23.330;2022-07-18T09:23:57;2.67;;;1.23;;
46561;SDS011;32289;42.688;23.330;2022-07-18T09:27:43;3.50;;;1.20;;
46561;SDS011;32289;42.688;23.330;2022-07-18T09:31:25;4.25;;;1.15;;
46561;SDS011;32289;42.688;23.330;2022-07-18T09:35:07;4.55;;;1.33;;
46561;SDS011;32289;42.688;23.330;2022-07-18T09:38:50;2.17;;;1.08;;
46561;SDS011;32289;42.688;23.330;2022-07-18T09:42:32;4.90;;;1.70;;
46561;SDS011;32289;42.688;23.330;2022-07-18T09:46:12;8.25;;;1.77;;
46561;SDS011;32289;42.688;23.330;2022-07-18T09:49:53;2.63;;;1.55;;
46561;SDS011;32289;42.688;23.330;2022-07-18T09:53:35;8.65;;;1.80;;
46561;SDS011;32289;42.688;23.330;2022-07-18T09:57:24;5.63;;;1.45;;
46561;SDS011;32289;42.688;23.330;2022-07-18T10:01:07;3.45;;;2.10;;
46561;SDS011;32289;42.688;23.330;2022-07-18T10:04:49;4.15;;;1.10;;
46561;SDS011;32289;42.688;23.330;2022-07-18T10:08:31;5.82;;;1.40;;
46561;SDS011;32289;42.688;23.330;2022-07-18T10:12:14;2.50;;;1.40;;
46561;SDS011;32289;42.688;23.330;2022-07-18T10:15:55;3.83;;;1.85;;
46561;SDS011;32289;42.688;23.330;2022-07-18T10:19:39;2.75;;;1.50;;
46561;SDS011;32289;42.688;23.330;2022-07-18T10:27:22;3.75;;;1.20;;
46561;SDS011;32289;42.688;23.330;2022-07-18T10:31:13;5.00;;;2.92;;
46561;SDS011;32289;42.688;23.330;2022-07-18T10:34:55;4.35;;;1.60;;
46561;SDS011;32289;42.688;23.330;2022-07-18T10:38:36;5.15;;;1.55;;
46561;SDS011;32289;42.688;23.330;2022-07-18T10:42:18;11.60;;;5.40;;
46561;SDS011;32289;42.688;23.330;2022-07-18T10:46:03;2.47;;;1.30;;
46561;SDS011;32289;42.688;23.330;2022-07-18T11:01:30;4.35;;;1.35;;
46561;SDS011;32289;42.688;23.330;2022-07-18T11:17:10;4.90;;;1.52;;
46561;SDS011;32289;42.688;23.330;2022-07-18T11:20:51;3.35;;;1.33;;
46561;SDS011;32289;42.688;23.330;2022-07-18T11:24:32;4.57;;;1.60;;
46561;SDS011;32289;42.688;23.330;2022-07-18T11:28:13;5.75;;;1.42;;
46561;SDS011;32289;42.688;23.330;2022-07-18T11:31:55;4.43;;;1.65;;
46561;SDS011;32289;42.688;23.330;2022-07-18T11:35:37;2.97;;;1.65;;
46561;SDS011;32289;42.688;23.330;2022-07-18T11:39:31;3.25;;;1.52;;
46561;SDS011;32289;42.688;23.330;2022-07-18T11:43:24;2.67;;;1.52;;
46561;SDS011;32289;42.688;23.330;2022-07-18T11:47:07;3.50;;;1.60;;
46561;SDS011;32289;42.688;23.330;2022-07-18T11:50:49;2.97;;;1.67;;
46561;SDS011;32289;42.688;23.330;2022-07-18T11:54:30;2.55;;;1.20;;
46561;SDS011;32289;42.688;23.330;2022-07-18T11:58:14;3.03;;;1.23;;
46561;SDS011;32289;42.688;23.330;2022-07-18T12:01:56;3.15;;;1.25;;
46561;SDS011;32289;42.688;23.330;2022-07-18T12:05:38;6.00;;;1.70;;
46561;SDS011;32289;42.688;23.330;2022-07-18T12:09:27;4.13;;;1.63;;
46561;SDS011;32289;42.688;23.330;2022-07-18T12:13:08;4.95;;;1.38;;
46561;SDS011;32289;42.688;23.330;2022-07-18T12:16:56;3.95;;;1.50;;
46561;SDS011;32289;42.688;23.330;2022-07-18T12:20:41;3.13;;;1.60;;
46561;SDS011;32289;42.688;23.330;2022-07-18T12:28:18;3.75;;;1.60;;
46561;SDS011;32289;42.688;23.330;2022-07-18T12:32:01;2.88;;;1.60;;
46561;SDS011;32289;42.688;23.330;2022-07-18T12:35:56;4.13;;;1.98;;
46561;SDS011;32289;42.688;23.330;2022-07-18T12:39:37;3.65;;;1.58;;
46561;SDS011;32289;42.688;23.330;2022-07-18T12:47:12;5.25;;;1.80;;
46561;SDS011;32289;42.688;23.330;2022-07-18T12:50:57;3.15;;;1.60;;
46561;SDS011;32289;42.688;23.330;2022-07-18T12:54:40;3.47;;;1.92;;
46561;SDS011;32289;42.688;23.330;2022-07-18T12:58:21;6.38;;;1.60;;
46561;SDS011;32289;42.688;23.330;2022-07-18T13:02:02;3.22;;;1.85;;
46561;SDS011;32289;42.688;23.330;2022-07-18T13:05:43;3.42;;;1.65;;
46561;SDS011;32289;42.688;23.330;2022-07-18T13:09:24;5.05;;;1.40;;
46561;SDS011;32289;42.688;23.330;2022-07-18T13:13:05;4.55;;;1.38;;
46561;SDS011;32289;42.688;23.330;2022-07-18T13:16:46;6.10;;;1.83;;
46561;SDS011;32289;42.688;23.330;2022-07-18T13:20:29;3.38;;;1.77;;
46561;SDS011;32289;42.688;23.330;2022-07-18T13:24:13;3.15;;;1.60;;
46561;SDS011;32289;42.688;23.330;2022-07-18T13:27:54;4.10;;;2.00;;
46561;SDS011;32289;42.688;23.330;2022-07-18T13:31:38;4.35;;;1.85;;
46561;SDS011;32289;42.688;23.330;2022-07-18T13:35:18;4.78;;;2.05;;
46561;SDS011;32289;42.688;23.330;2022-07-18T13:39:00;4.22;;;1.95;;
46561;SDS011;32289;42.688;23.330;2022-07-18T13:42:41;7.20;;;2.08;;
46561;SDS011;32289;42.688;23.330;2022-07-18T13:46:22;3.30;;;1.40;;
46561;SDS011;32289;42.688;23.330;2022-07-18T13:50:03;3.70;;;1.63;;
46561;SDS011;32289;42.688;23.330;2022-07-18T13:53:46;2.75;;;1.55;;
46561;SDS011;32289;42.688;23.330;2022-07-18T13:57:27;3.25;;;1.48;;
46561;SDS011;32289;42.688;23.330;2022-07-18T14:01:07;4.68;;;1.33;;
46561;SDS011;32289;42.688;23.330;2022-07-18T14:04:48;3.20;;;1.50;;
46561;SDS011;32289;42.688;23.330;2022-07-18T14:08:29;3.53;;;1.70;;
46561;SDS011;32289;42.688;23.330;2022-07-18T14:12:10;5.68;;;1.58;;
46561;SDS011;32289;42.688;23.330;2022-07-18T14:15:51;5.13;;;1.70;;
46561;SDS011;32289;42.688;23.330;2022-07-18T14:19:50;3.60;;;1.42;;
46561;SDS011;32289;42.688;23.330;2022-07-18T14:23:31;2.40;;;1.40;;
46561;SDS011;32289;42.688;23.330;2022-07-18T14:27:12;6.30;;;1.77;;
46561;SDS011;32289;42.688;23.330;2022-07-18T14:30:57;4.35;;;2.10;;
46561;SDS011;32289;42.688;23.330;2022-07-18T14:34:38;4.03;;;2.00;;
46561;SDS011;32289;42.688;23.330;2022-07-18T14:38:19;3.67;;;2.20;;
46561;SDS011;32289;42.688;23.330;2022-07-18T14:42:00;6.90;;;1.98;;
46561;SDS011;32289;42.688;23.330;2022-07-18T14:45:41;4.47;;;1.75;;
46561;SDS011;32289;42.688;23.330;2022-07-18T14:49:21;10.20;;;2.20;;
46561;SDS011;32289;42.688;23.330;2022-07-18T14:53:03;4.13;;;1.67;;
46561;SDS011;32289;42.688;23.330;2022-07-18T14:56:44;4.18;;;1.65;;
46561;SDS011;32289;42.688;23.330;2022-07-18T15:00:24;5.32;;;1.88;;
46561;SDS011;32289;42.688;23.330;2022-07-18T15:04:05;7.82;;;1.95;;
46561;SDS011;32289;42.688;23.330;2022-07-18T15:07:49;6.78;;;1.92;;
46561;SDS011;32289;42.688;23.330;2022-07-18T15:11:29;2.97;;;1.80;;
46561;SDS011;32289;42.688;23.330;2022-07-18T15:15:10;2.78;;;1.80;;
46561;SDS011;32289;42.688;23.330;2022-07-18T15:18:51;5.10;;;2.13;;
46561;SDS011;32289;42.688;23.330;2022-07-18T15:22:31;3.42;;;1.98;;
46561;SDS011;32289;42.688;23.330;2022-07-18T15:26:12;5.53;;;1.92;;
46561;SDS011;32289;42.688;23.330;2022-07-18T15:29:53;3.25;;;1.88;;
46561;SDS011;32289;42.688;23.330;2022-07-18T15:33:34;4.72;;;2.05;;
46561;SDS011;32289;42.688;23.330;2022-07-18T15:37:14;4.03;;;1.80;;
46561;SDS011;32289;42.688;23.330;2022-07-18T15:40:55;4.43;;;2.08;;
46561;SDS011;32289;42.688;23.330;2022-07-18T15:44:37;4.53;;;2.25;;
46561;SDS011;32289;42.688;23.330;2022-07-18T15:48:18;5.38;;;2.35;;
46561;SDS011;32289;42.688;23.330;2022-07-18T15:51:59;3.03;;;1.80;;
46561;SDS011;32289;42.688;23.330;2022-07-18T15:55:40;6.75;;;2.45;;
46561;SDS011;32289;42.688;23.330;2022-07-18T15:59:21;2.63;;;1.80;;
46561;SDS011;32289;42.688;23.330;2022-07-18T16:03:02;4.60;;;2.30;;
46561;SDS011;32289;42.688;23.330;2022-07-18T16:06:42;4.78;;;2.22;;
46561;SDS011;32289;42.688;23.330;2022-07-18T16:10:23;6.10;;;2.17;;
46561;SDS011;32289;42.688;23.330;2022-07-18T16:14:04;3.45;;;2.10;;
46561;SDS011;32289;42.688;23.330;2022-07-18T16:17:47;6.55;;;2.28;;
46561;SDS011;32289;42.688;23.330;2022-07-18T16:21:28;7.55;;;2.20;;
46561;SDS011;32289;42.688;23.330;2022-07-18T16:25:09;3.63;;;2.20;;
46561;SDS011;32289;42.688;23.330;2022-07-18T16:28:52;3.50;;;1.88;;
46561;SDS011;32289;42.688;23.330;2022-07-18T16:32:33;12.32;;;3.53;;
46561;SDS011;32289;42.688;23.330;2022-07-18T16:36:14;12.43;;;3.55;;
46561;SDS011;32289;42.688;23.330;2022-07-18T16:39:54;7.40;;;3.20;;
46561;SDS011;32289;42.688;23.330;2022-07-18T16:43:35;4.82;;;2.22;;
46561;SDS011;32289;42.688;23.330;2022-07-18T16:47:19;5.22;;;2.70;;
46561;SDS011;32289;42.688;23.330;2022-07-18T16:51:00;5.22;;;2.63;;
46561;SDS011;32289;42.688;23.330;2022-07-18T16:54:41;5.03;;;2.70;;
46561;SDS011;32289;42.688;23.330;2022-07-18T16:58:22;8.18;;;3.58;;
46561;SDS011;32289;42.688;23.330;2022-07-18T17:02:04;6.38;;;2.78;;
46561;SDS011;32289;42.688;23.330;2022-07-18T17:05:45;5.60;;;2.55;;
46561;SDS011;32289;42.688;23.330;2022-07-18T17:09:26;4.28;;;1.70;;
46561;SDS011;32289;42.688;23.330;2022-07-18T17:13:07;4.82;;;2.33;;
46561;SDS011;32289;42.688;23.330;2022-07-18T17:16:48;5.70;;;2.22;;
46561;SDS011;32289;42.688;23.330;2022-07-18T17:20:29;5.07;;;2.33;;
46561;SDS011;32289;42.688;23.330;2022-07-18T17:24:10;4.35;;;2.00;;
46561;SDS011;32289;42.688;23.330;2022-07-18T17:27:51;2.95;;;1.65;;
46561;SDS011;32289;42.688;23.330;2022-07-18T17:31:32;6.78;;;2.17;;
46561;SDS011;32289;42.688;23.330;2022-07-18T17:35:13;4.25;;;2.05;;
46561;SDS011;32289;42.688;23.330;2022-07-18T17:38:54;3.30;;;2.08;;
46561;SDS011;32289;42.688;23.330;2022-07-18T17:42:35;5.85;;;2.38;;
46561;SDS011;32289;42.688;23.330;2022-07-18T17:46:17;6.18;;;3.30;;
46561;SDS011;32289;42.688;23.330;2022-07-18T17:49:58;4.03;;;2.50;;
46561;SDS011;32289;42.688;23.330;2022-07-18T17:53:39;5.65;;;3.03;;
46561;SDS011;32289;42.688;23.330;2022-07-18T17:57:19;5.43;;;3.40;;
46561;SDS011;32289;42.688;23.330;2022-07-18T18:01:00;7.45;;;2.60;;
46561;SDS011;32289;42.688;23.330;2022-07-18T18:04:41;4.97;;;2.75;;
46561;SDS011;32289;42.688;23.330;2022-07-18T18:08:22;4.20;;;2.70;;
46561;SDS011;32289;42.688;23.330;2022-07-18T18:12:03;6.50;;;2.70;;
46561;SDS011;32289;42.688;23.330;2022-07-18T18:15:46;8.68;;;2.83;;
46561;SDS011;32289;42.688;23.330;2022-07-18T18:19:30;5.07;;;2.45;;
46561;SDS011;32289;42.688;23.330;2022-07-18T18:23:11;5.03;;;2.42;;
46561;SDS011;32289;42.688;23.330;2022-07-18T18:26:52;8.05;;;2.67;;
46561;SDS011;32289;42.688;23.330;2022-07-18T18:30:33;7.13;;;3.25;;
46561;SDS011;32289;42.688;23.330;2022-07-18T18:34:16;7.60;;;3.58;;
46561;SDS011;32289;42.688;23.330;2022-07-18T18:37:57;11.18;;;4.68;;
46561;SDS011;32289;42.688;23.330;2022-07-18T18:41:38;7.05;;;2.65;;
46561;SDS011;32289;42.688;23.330;2022-07-18T18:45:20;7.45;;;2.80;;
46561;SDS011;32289;42.688;23.330;2022-07-18T18:49:01;8.05;;;3.38;;
46561;SDS011;32289;42.688;23.330;2022-07-18T18:52:43;6.15;;;2.60;;
46561;SDS011;32289;42.688;23.330;2022-07-18T18:56:24;4.47;;;2.22;;
46561;SDS011;32289;42.688;23.330;2022-07-18T19:00:06;5.18;;;3.22;;
46561;SDS011;32289;42.688;23.330;2022-07-18T19:03:48;4.40;;;2.63;;
46561;SDS011;32289;42.688;23.330;2022-07-18T19:07:29;10.35;;;4.88;;
46561;SDS011;32289;42.688;23.330;2022-07-18T19:11:10;7.45;;;4.53;;
46561;SDS011;32289;42.688;23.330;2022-07-18T19:14:52;9.02;;;5.18;;
46561;SDS011;32289;42.688;23.330;2022-07-18T19:18:33;10.02;;;3.35;;
46561;SDS011;32289;42.688;23.330;2022-07-18T19:22:16;6.05;;;3.20;;
46561;SDS011;32289;42.688;23.330;2022-07-18T19:25:57;6.15;;;3.00;;
46561;SDS011;32289;42.688;23.330;2022-07-18T19:29:38;4.55;;;2.92;;
46561;SDS011;32289;42.688;23.330;2022-07-18T19:33:19;7.03;;;4.03;;
46561;SDS011;32289;42.688;23.330;2022-07-18T19:37:02;15.77;;;4.97;;
46561;SDS011;32289;42.688;23.330;2022-07-18T19:40:48;15.80;;;7.28;;
46561;SDS011;32289;42.688;23.330;2022-07-18T19:44:31;5.50;;;2.72;;
46561;SDS011;32289;42.688;23.330;2022-07-18T19:48:12;14.77;;;4.85;;
46561;SDS011;32289;42.688;23.330;2022-07-18T19:51:53;14.35;;;3.67;;
46561;SDS011;32289;42.688;23.330;2022-07-18T19:55:35;7.95;;;2.97;;
46561;SDS011;32289;42.688;23.330;2022-07-18T19:59:18;8.18;;;3.30;;
46561;SDS011;32289;42.688;23.330;2022-07-18T20:02:59;5.05;;;3.17;;
46561;SDS011;32289;42.688;23.330;2022-07-18T20:06:40;10.50;;;3.28;;
46561;SDS011;32289;42.688;23.330;2022-07-18T20:10:21;8.57;;;4.75;;
46561;SDS011;32289;42.688;23.330;2022-07-18T20:14:03;5.63;;;3.65;;
46561;SDS011;32289;42.688;23.330;2022-07-18T20:17:49;12.82;;;2.83;;
46561;SDS011;32289;42.688;23.330;2022-07-18T20:21:30;6.22;;;2.50;;
46561;SDS011;32289;42.688;23.330;2022-07-18T20:25:11;7.07;;;3.17;;
46561;SDS011;32289;42.688;23.330;2022-07-18T20:28:52;7.65;;;2.88;;
46561;SDS011;32289;42.688;23.330;2022-07-18T20:32:32;5.70;;;3.10;;
46561;SDS011;32289;42.688;23.330;2022-07-18T20:36:15;33.38;;;7.95;;
46561;SDS011;32289;42.688;23.330;2022-07-18T20:39:55;17.13;;;4.82;;
46561;SDS011;32289;42.688;23.330;2022-07-18T20:43:37;12.05;;;3.28;;
46561;SDS011;32289;42.688;23.330;2022-07-18T20:47:18;13.48;;;5.25;;
46561;SDS011;32289;42.688;23.330;2022-07-18T20:50:58;14.15;;;4.18;;
46561;SDS011;32289;42.688;23.330;2022-07-18T20:54:39;15.48;;;4.82;;
46561;SDS011;32289;42.688;23.330;2022-07-18T20:58:20;8.32;;;3.20;;
46561;SDS011;32289;42.688;23.330;2022-07-18T21:02:01;8.63;;;5.32;;
46561;SDS011;32289;42.688;23.330;2022-07-18T21:05:41;8.77;;;5.60;;
46561;SDS011;32289;42.688;23.330;2022-07-18T21:09:22;4.43;;;2.92;;
46561;SDS011;32289;42.688;23.330;2022-07-18T21:13:03;5.57;;;2.95;;
46561;SDS011;32289;42.688;23.330;2022-07-18T21:16:43;7.03;;;2.95;;
46561;SDS011;32289;42.688;23.330;2022-07-18T21:20:25;5.88;;;2.53;;
46561;SDS011;32289;42.688;23.330;2022-07-18T21:24:07;8.30;;;2.80;;
46561;SDS011;32289;42.688;23.330;2022-07-18T21:27:47;4.47;;;2.50;;
46561;SDS011;32289;42.688;23.330;2022-07-18T21:31:28;10.45;;;3.22;;
46561;SDS011;32289;42.688;23.330;2022-07-18T21:35:09;10.02;;;2.85;;
46561;SDS011;32289;42.688;23.330;2022-07-18T21:38:50;7.82;;;3.03;;
46561;SDS011;32289;42.688;23.330;2022-07-18T21:42:31;5.18;;;2.35;;
46561;SDS011;32289;42.688;23.330;2022-07-18T21:46:12;4.05;;;2.55;;
46561;SDS011;32289;42.688;23.330;2022-07-18T21:49:53;5.97;;;2.85;;
46561;SDS011;32289;42.688;23.330;2022-07-18T21:53:33;5.25;;;2.58;;
46561;SDS011;32289;42.688;23.330;2022-07-18T21:57:14;9.80;;;2.70;;
46561;SDS011;32289;42.688;23.330;2022-07-18T22:00:59;7.97;;;2.70;;
46561;SDS011;32289;42.688;23.330;2022-07-18T22:04:40;5.38;;;2.78;;
46561;SDS011;32289;42.688;23.330;2022-07-18T22:08:21;6.45;;;2.58;;
46561;SDS011;32289;42.688;23.330;2022-07-18T22:12:02;5.68;;;2.45;;
46561;SDS011;32289;42.688;23.330;2022-07-18T22:15:43;5.13;;;2.35;;
46561;SDS011;32289;42.688;23.330;2022-07-18T22:19:23;7.32;;;2.63;;
46561;SDS011;32289;42.688;23.330;2022-07-18T22:23:04;4.20;;;2.35;;
46561;SDS011;32289;42.688;23.330;2022-07-18T22:26:45;3.45;;;2.15;;
46561;SDS011;32289;42.688;23.330;2022-07-18T22:30:25;10.10;;;2.50;;